createdAt,value
2018-12-11T11:37:36.981Z,71.22
2018-12-11T11:40:06.639Z,71.82
2018-12-11T11:42:35.661Z,71.58
2018-12-11T11:45:05.090Z,71.32
2018-12-11T11:47:33.799Z,71.03
2018-12-11T11:50:02.544Z,70.77
2018-12-11T11:52:31.289Z,69.96
2018-12-11T11:54:59.893Z,70.82
2018-12-11T11:57:29.844Z,70.94
2018-12-11T11:59:59.412Z,71.50
2018-12-11T12:02:33.425Z,70.58
2018-12-11T12:04:58.931Z,70.59
2018-12-11T12:07:27.798Z,70.66
2018-12-11T12:09:56.432Z,70.79
2018-12-11T12:12:25.111Z,70.68
2018-12-11T12:14:53.736Z,70.69
2018-12-11T12:17:22.370Z,70.44
2018-12-11T12:19:51.033Z,71.64
2018-12-11T12:22:19.797Z,69.91
2018-12-11T12:24:48.400Z,70.87
2018-12-11T12:27:17.107Z,70.44
2018-12-11T12:29:46.047Z,71.12
2018-12-11T12:32:14.697Z,70.28
2018-12-11T12:34:43.315Z,70.63
2018-12-11T12:37:12.022Z,70.87
2018-12-11T12:39:40.862Z,70.65
2018-12-11T12:42:09.469Z,70.52
2018-12-11T12:44:38.091Z,70.02
2018-12-11T12:47:06.785Z,70.45
2018-12-11T12:49:35.475Z,71.18
2018-12-11T12:52:04.600Z,69.71
2018-12-11T12:54:33.215Z,70.13
2018-12-11T12:57:01.863Z,69.86
2018-12-11T12:59:30.596Z,70.76
2018-12-11T13:01:59.248Z,70.26
2018-12-11T13:04:28.096Z,71.05
2018-12-11T13:06:56.831Z,70.44
2018-12-11T13:09:25.587Z,71.11
2018-12-11T13:11:54.233Z,70.48
2018-12-11T13:14:23.473Z,71.76
2018-12-11T13:16:52.110Z,71.64
2018-12-11T13:19:20.791Z,71.50
2018-12-11T13:21:49.477Z,71.79
2018-12-11T13:24:18.075Z,71.39
2018-12-11T13:26:46.702Z,71.18
2018-12-11T13:29:16.308Z,73.01
2018-12-11T13:31:45.001Z,73.27
2018-12-11T13:34:13.704Z,74.47
2018-12-11T13:36:42.355Z,74.56
2018-12-11T13:39:11.143Z,74.27
2018-12-11T13:41:39.892Z,75.43
2018-12-11T13:44:08.636Z,76.66
2018-12-11T13:46:37.990Z,76.48
2018-12-11T13:49:06.840Z,75.46
2018-12-11T13:51:35.487Z,76.96
2018-12-11T13:54:04.347Z,75.63
2018-12-11T13:56:32.968Z,75.94
2018-12-11T13:59:01.635Z,74.40
2018-12-11T14:01:30.324Z,74.89
2018-12-11T14:03:58.959Z,76.33
2018-12-11T14:06:27.654Z,75.48
2018-12-11T14:08:56.295Z,75.02
2018-12-11T14:11:24.989Z,75.04
2018-12-11T14:13:53.707Z,75.17
2018-12-11T14:16:22.343Z,74.72
2018-12-11T14:18:52.628Z,75.58
2018-12-11T14:21:21.351Z,75.87
2018-12-11T14:23:50.072Z,75.35
2018-12-11T14:26:18.909Z,75.53
2018-12-11T14:28:47.542Z,75.33
2018-12-11T14:31:16.263Z,74.87
2018-12-11T14:33:45.054Z,74.16
2018-12-11T14:36:13.713Z,73.44
2018-12-11T14:38:42.360Z,73.90
2018-12-11T14:41:11.037Z,74.90
2018-12-11T14:43:39.708Z,73.96
2018-12-11T14:46:14.861Z,73.07
2018-12-11T14:48:43.880Z,74.02
2018-12-11T14:51:12.504Z,73.42
2018-12-11T14:53:41.415Z,74.49
2018-12-11T14:56:16.752Z,73.24
2018-12-11T14:58:45.623Z,72.78
2018-12-11T15:01:14.304Z,73.34
2018-12-11T15:03:42.984Z,72.88
2018-12-11T15:06:11.655Z,73.88
2018-12-11T15:08:40.286Z,73.79
2018-12-11T15:11:09.160Z,73.02
2018-12-11T15:13:37.830Z,73.79
2018-12-11T15:16:07.620Z,73.79
2018-12-11T15:18:36.332Z,74.05
2018-12-11T15:21:05.148Z,73.75
2018-12-11T15:23:33.938Z,73.66
2018-12-11T15:26:05.649Z,74.23
2018-12-11T15:28:34.343Z,73.02
2018-12-11T15:31:10.765Z,73.42
2018-12-11T15:33:39.517Z,73.58
2018-12-11T15:36:08.226Z,74.18
2018-12-11T15:38:36.899Z,74.05
2018-12-11T15:41:05.645Z,73.83
2018-12-11T15:43:35.009Z,74.01
2018-12-11T15:46:03.768Z,73.58
2018-12-11T15:48:32.491Z,74.29
2018-12-11T15:51:01.116Z,74.48
2018-12-11T15:53:29.791Z,74.06
2018-12-11T15:55:58.432Z,72.96
2018-12-11T15:58:27.118Z,74.24
2018-12-11T16:00:55.807Z,73.72
2018-12-11T16:03:24.590Z,74.65
2018-12-11T16:05:53.268Z,74.43
2018-12-11T16:08:21.963Z,73.24
2018-12-11T16:10:50.611Z,74.50
2018-12-11T16:13:19.351Z,74.23
2018-12-11T16:15:48.011Z,73.93
2018-12-11T16:18:16.641Z,74.51
2018-12-11T16:20:45.339Z,74.64
2018-12-11T16:23:14.087Z,74.29
2018-12-11T16:25:42.956Z,74.45
2018-12-11T16:28:11.776Z,74.41
2018-12-11T16:30:40.476Z,74.84
2018-12-11T16:33:09.111Z,74.71
2018-12-11T16:35:37.809Z,73.83
2018-12-11T16:38:06.468Z,74.62
2018-12-11T16:40:35.162Z,73.62
2018-12-11T16:43:03.796Z,74.84
2018-12-11T16:45:32.540Z,74.54
2018-12-11T16:48:01.269Z,75.02
2018-12-11T16:50:29.940Z,74.76
2018-12-11T16:52:58.634Z,74.39
2018-12-11T16:55:27.258Z,75.22
2018-12-11T16:57:55.945Z,75.18
2018-12-11T17:00:24.663Z,75.18
2018-12-11T17:02:53.375Z,74.82
2018-12-11T17:05:22.152Z,74.91
2018-12-11T17:07:50.956Z,75.47
2018-12-11T17:10:19.625Z,74.61
2018-12-11T17:12:48.269Z,74.46
2018-12-11T17:15:21.443Z,74.58
2018-12-11T17:17:50.105Z,74.17
2018-12-11T17:20:18.774Z,74.89
2018-12-11T17:22:47.455Z,73.80
2018-12-11T17:25:16.055Z,74.74
2018-12-11T17:27:44.801Z,74.06
2018-12-11T17:30:13.468Z,74.53
2018-12-11T17:32:42.187Z,74.75
2018-12-11T17:35:10.897Z,75.07
2018-12-11T17:37:39.623Z,75.16
2018-12-11T17:40:08.218Z,73.78
2018-12-11T17:42:36.860Z,74.37
2018-12-11T17:45:05.615Z,75.16
2018-12-11T17:47:34.475Z,74.51
2018-12-11T17:50:03.571Z,74.87
2018-12-11T17:52:32.515Z,74.04
2018-12-11T17:55:01.213Z,75.36
2018-12-11T17:57:30.069Z,75.42
2018-12-11T17:59:58.749Z,75.11
2018-12-11T18:02:32.153Z,74.67
2018-12-11T18:05:00.875Z,74.46
2018-12-11T18:07:29.663Z,75.57
2018-12-11T18:09:58.455Z,75.47
2018-12-11T18:12:27.269Z,75.27
2018-12-11T18:14:56.029Z,75.47
2018-12-11T18:17:24.853Z,75.85
2018-12-11T18:19:53.639Z,75.83
2018-12-11T18:22:22.327Z,76.00
2018-12-11T18:24:51.058Z,75.94
2018-12-11T18:27:19.804Z,76.23
2018-12-11T18:29:48.519Z,75.74
2018-12-11T18:32:17.220Z,76.02
2018-12-11T18:34:48.575Z,75.21
2018-12-11T18:37:17.275Z,75.79
2018-12-11T18:39:46.096Z,75.69
2018-12-11T18:42:14.880Z,76.17
2018-12-11T18:44:43.625Z,75.46
2018-12-11T18:47:12.558Z,75.75
2018-12-11T18:49:41.354Z,75.56
2018-12-11T18:52:10.115Z,75.45
2018-12-11T18:54:38.960Z,76.31
2018-12-11T18:57:07.699Z,76.21
2018-12-11T18:59:36.510Z,75.44
2018-12-11T19:02:05.581Z,75.43
2018-12-11T19:04:34.290Z,75.53
2018-12-11T19:07:02.984Z,75.21
2018-12-11T19:09:31.853Z,76.19
2018-12-11T19:12:00.554Z,75.80
2018-12-11T19:14:29.435Z,74.80
2018-12-11T19:16:58.146Z,75.37
2018-12-11T19:19:26.973Z,75.79
2018-12-11T19:21:55.793Z,75.84
2018-12-11T19:24:37.351Z,76.22
2018-12-11T19:27:06.049Z,75.10
2018-12-11T19:29:34.917Z,75.22
2018-12-11T19:32:03.600Z,74.61
2018-12-11T19:34:32.239Z,75.15
2018-12-11T19:37:00.942Z,76.20
2018-12-11T19:39:29.668Z,75.48
2018-12-11T19:41:58.367Z,75.58
2018-12-11T19:44:27.084Z,76.66
2018-12-11T19:46:55.792Z,75.90
2018-12-11T19:49:24.474Z,76.29
2018-12-11T19:51:53.250Z,76.19
2018-12-11T19:54:21.973Z,75.02
2018-12-11T19:56:50.718Z,75.61
2018-12-11T19:59:19.440Z,76.23
2018-12-11T20:01:48.155Z,76.18
2018-12-11T20:04:17.308Z,75.88
2018-12-11T20:06:45.967Z,75.88
2018-12-11T20:09:14.781Z,75.80
2018-12-11T20:11:43.446Z,76.66
2018-12-11T20:14:12.089Z,76.24
2018-12-11T20:16:40.891Z,76.78
2018-12-11T20:19:09.782Z,76.47
2018-12-11T20:21:38.436Z,76.96
2018-12-11T20:24:07.167Z,75.94
2018-12-11T20:26:39.286Z,76.30
2018-12-11T20:29:06.651Z,76.70
2018-12-11T20:31:35.385Z,76.66
2018-12-11T20:34:04.324Z,77.51
2018-12-11T20:36:33.024Z,77.12
2018-12-11T20:39:01.765Z,77.58
2018-12-11T20:41:30.548Z,76.93
2018-12-11T20:43:59.361Z,77.46
2018-12-11T20:46:28.079Z,76.78
2018-12-11T20:48:56.824Z,77.17
2018-12-11T20:51:25.601Z,77.26
2018-12-11T20:53:54.420Z,77.73
2018-12-11T20:56:23.121Z,77.52
2018-12-11T20:58:51.831Z,77.23
2018-12-11T21:01:20.554Z,77.66
2018-12-11T21:03:49.372Z,77.90
2018-12-11T21:06:18.072Z,77.36
2018-12-11T21:08:46.864Z,77.63
2018-12-11T21:11:15.559Z,78.00
2018-12-11T21:13:44.962Z,77.42
2018-12-11T21:16:13.591Z,76.82
2018-12-11T21:18:42.752Z,77.19
2018-12-11T21:21:11.830Z,78.36
2018-12-11T21:23:40.594Z,78.21
2018-12-11T21:26:09.327Z,78.33
2018-12-11T21:28:37.983Z,77.76
2018-12-11T21:31:06.737Z,77.90
2018-12-11T21:33:35.597Z,77.98
2018-12-11T21:36:04.352Z,77.56
2018-12-11T21:38:33.080Z,77.32
2018-12-11T21:41:01.787Z,76.86
2018-12-11T21:43:30.617Z,77.32
2018-12-11T21:45:59.330Z,76.71
2018-12-11T21:48:27.957Z,76.65
2018-12-11T21:50:56.743Z,76.83
2018-12-11T21:53:25.467Z,77.12
2018-12-11T21:55:54.079Z,76.83
2018-12-11T21:58:22.908Z,77.31
2018-12-11T22:00:51.941Z,77.43
2018-12-11T22:03:20.939Z,77.19
2018-12-11T22:05:50.133Z,78.11
2018-12-11T22:08:18.863Z,78.29
2018-12-11T22:10:47.583Z,78.88
2018-12-11T22:13:16.384Z,78.68
2018-12-11T22:15:45.159Z,78.56
2018-12-11T22:18:13.915Z,78.76
2018-12-11T22:20:42.612Z,78.67
2018-12-11T22:23:11.428Z,78.55
2018-12-11T22:25:40.217Z,78.49
2018-12-11T22:28:08.919Z,78.01
2018-12-11T22:30:37.678Z,78.18
2018-12-11T22:33:06.378Z,77.88
2018-12-11T22:35:35.170Z,77.88
2018-12-11T22:38:03.969Z,78.31
2018-12-11T22:40:32.748Z,78.33
2018-12-11T22:43:01.459Z,78.23
2018-12-11T22:45:30.253Z,78.25
2018-12-11T22:47:59.046Z,77.77
2018-12-11T22:50:27.769Z,78.16
2018-12-11T22:52:56.491Z,78.23
2018-12-11T22:55:25.196Z,77.99
2018-12-11T22:57:53.947Z,78.26
2018-12-11T23:00:22.773Z,77.86
2018-12-11T23:02:51.595Z,78.31
2018-12-11T23:05:20.296Z,78.08
2018-12-11T23:07:49.220Z,78.04
2018-12-11T23:10:17.995Z,77.67
2018-12-11T23:12:46.819Z,77.36
2018-12-11T23:15:15.502Z,77.28
2018-12-11T23:17:44.134Z,77.14
2018-12-11T23:20:12.828Z,77.58
2018-12-11T23:22:41.540Z,77.15
2018-12-11T23:25:10.179Z,77.45
2018-12-11T23:27:38.842Z,77.65
2018-12-11T23:30:07.698Z,77.82
2018-12-11T23:32:36.397Z,77.67
2018-12-11T23:35:05.797Z,78.21
2018-12-11T23:37:34.519Z,78.27
2018-12-11T23:40:03.602Z,78.07
2018-12-11T23:42:32.449Z,78.11
2018-12-11T23:45:01.126Z,78.29
2018-12-11T23:47:29.837Z,78.09
2018-12-11T23:49:58.515Z,78.73
2018-12-11T23:52:27.348Z,78.16
2018-12-11T23:54:56.107Z,78.19
2018-12-11T23:57:24.807Z,78.47
2018-12-11T23:59:53.549Z,78.15
